createdAt,value
2023-04-23T00:00:00.350Z,0.00
2023-04-23T00:01:00.307Z,0.00
2023-04-23T00:02:00.290Z,0.00
2023-04-23T00:03:00.445Z,0.00
2023-04-23T00:04:00.387Z,0.00
2023-04-23T00:05:00.535Z,0.00
2023-04-23T00:06:00.249Z,0.00
2023-04-23T00:07:00.255Z,0.00
2023-04-23T00:08:00.221Z,0.00
2023-04-23T00:09:00.212Z,0.00
2023-04-23T00:10:00.243Z,0.00
2023-04-23T00:11:00.201Z,0.00
2023-04-23T00:12:00.228Z,0.00
2023-04-23T00:13:00.177Z,0.00
2023-04-23T00:14:00.176Z,0.00
2023-04-23T00:15:00.184Z,0.00
2023-04-23T00:16:00.410Z,0.00
2023-04-23T00:17:00.165Z,0.00
2023-04-23T00:18:00.197Z,0.00
2023-04-23T00:19:00.119Z,0.00
2023-04-23T00:20:00.124Z,0.00
2023-04-23T00:21:00.124Z,0.00
2023-04-23T00:22:00.105Z,0.00
2023-04-23T00:23:00.084Z,0.00
2023-04-23T00:24:00.075Z,0.00
2023-04-23T00:25:00.062Z,0.00
2023-04-23T00:26:00.100Z,0.00
2023-04-23T00:27:00.022Z,0.00
2023-04-23T00:28:00.061Z,0.00
2023-04-23T00:29:00.029Z,0.00
2023-04-23T00:30:00.006Z,0.00
2023-04-23T00:31:00.003Z,0.00
2023-04-23T00:32:00.009Z,0.00
2023-04-23T00:32:59.998Z,0.00
2023-04-23T00:33:59.986Z,0.00
2023-04-23T00:34:59.958Z,0.00
2023-04-23T00:35:59.937Z,0.00
2023-04-23T00:36:59.927Z,0.00
2023-04-23T00:37:59.921Z,0.00
2023-04-23T00:38:59.971Z,0.00
2023-04-23T00:39:59.899Z,0.00
2023-04-23T00:40:59.909Z,0.00
2023-04-23T00:41:59.905Z,0.00
2023-04-23T00:42:59.873Z,0.00
2023-04-23T00:43:59.903Z,0.00
2023-04-23T00:44:59.855Z,0.00
2023-04-23T00:45:59.859Z,0.00
2023-04-23T00:46:59.831Z,0.00
2023-04-23T00:48:00.049Z,0.00
2023-04-23T00:48:59.810Z,0.00
2023-04-23T00:49:59.785Z,0.00
2023-04-23T00:50:59.789Z,0.00
2023-04-23T00:51:59.775Z,0.00
2023-04-23T00:52:59.790Z,0.00
2023-04-23T00:53:59.749Z,0.00
2023-04-23T00:54:59.742Z,0.00
2023-04-23T00:55:59.737Z,0.00
2023-04-23T00:56:59.765Z,0.00
2023-04-23T00:57:59.727Z,0.00
2023-04-23T00:58:59.695Z,0.00
2023-04-23T00:59:59.685Z,0.00
2023-04-23T01:00:59.732Z,0.00
2023-04-23T01:01:59.659Z,0.00
2023-04-23T01:02:59.828Z,0.00
2023-04-23T01:03:59.816Z,0.00
2023-04-23T01:04:59.657Z,0.00
2023-04-23T01:05:59.625Z,0.00
2023-04-23T01:06:59.616Z,0.00
2023-04-23T01:07:59.609Z,0.00
2023-04-23T01:08:59.645Z,0.00
2023-04-23T01:09:59.573Z,0.00
2023-04-23T01:10:59.583Z,0.00
2023-04-23T01:11:59.561Z,0.00
2023-04-23T01:12:59.603Z,0.00
2023-04-23T01:13:59.564Z,0.00
2023-04-23T01:14:59.543Z,0.00
2023-04-23T01:15:59.525Z,0.00
2023-04-23T01:16:59.533Z,0.00
2023-04-23T01:17:59.560Z,0.00
2023-04-23T01:18:59.513Z,0.00
2023-04-23T01:19:59.488Z,0.00
2023-04-23T01:20:59.507Z,0.00
2023-04-23T01:21:59.502Z,0.00
2023-04-23T01:22:59.498Z,0.00
2023-04-23T01:23:59.492Z,0.00
2023-04-23T01:24:59.438Z,0.00
2023-04-23T01:25:59.492Z,0.00
2023-04-23T01:26:59.432Z,0.00
2023-04-23T01:27:59.457Z,0.00
2023-04-23T01:28:59.457Z,0.00
2023-04-23T01:29:59.379Z,0.00
2023-04-23T01:30:59.414Z,0.00
2023-04-23T01:31:59.355Z,0.00
2023-04-23T01:32:59.425Z,0.00
2023-04-23T01:33:59.363Z,0.00
2023-04-23T01:34:59.349Z,0.00
2023-04-23T01:35:59.308Z,0.00
2023-04-23T01:36:59.420Z,0.00
2023-04-23T01:37:59.292Z,0.00
2023-04-23T01:38:59.275Z,0.00
2023-04-23T01:39:59.295Z,0.00
2023-04-23T01:40:59.271Z,0.00
2023-04-23T01:41:59.261Z,0.00
2023-04-23T01:42:59.250Z,0.00
2023-04-23T01:43:59.258Z,0.00
2023-04-23T01:44:59.223Z,0.00
2023-04-23T01:45:59.266Z,0.00
2023-04-23T01:46:59.200Z,0.00
2023-04-23T01:47:59.242Z,0.00
2023-04-23T01:48:59.179Z,0.00
2023-04-23T01:49:59.183Z,0.00
2023-04-23T01:50:59.180Z,0.00
2023-04-23T01:51:59.158Z,0.00
2023-04-23T01:52:59.135Z,0.00
2023-04-23T01:53:59.178Z,0.00
2023-04-23T01:54:59.146Z,0.00
2023-04-23T01:55:59.166Z,0.00
2023-04-23T01:56:59.125Z,0.00
2023-04-23T01:57:59.105Z,0.00
2023-04-23T01:58:59.107Z,0.00
2023-04-23T01:59:59.067Z,0.00
2023-04-23T02:00:59.101Z,0.00
2023-04-23T02:01:59.110Z,0.00
2023-04-23T02:02:59.098Z,0.00
2023-04-23T02:03:59.217Z,0.00
2023-04-23T02:04:59.052Z,0.00
2023-04-23T02:05:59.006Z,0.00
2023-04-23T02:06:59.037Z,0.00
2023-04-23T02:07:59.001Z,0.00
2023-04-23T02:08:59.026Z,0.00
2023-04-23T02:09:58.983Z,0.00
2023-04-23T02:10:59.043Z,0.00
2023-04-23T02:11:58.980Z,0.00
2023-04-23T02:12:58.960Z,0.00
2023-04-23T02:13:58.936Z,0.00
2023-04-23T02:14:58.930Z,0.00
2023-04-23T02:15:58.950Z,0.00
2023-04-23T02:16:58.925Z,0.00
2023-04-23T02:17:58.944Z,0.00
2023-04-23T02:18:58.890Z,0.00
2023-04-23T02:19:58.883Z,0.00
2023-04-23T02:20:58.894Z,0.00
2023-04-23T02:21:58.869Z,0.00
2023-04-23T02:22:58.863Z,0.00
2023-04-23T02:23:58.843Z,0.00
2023-04-23T02:24:58.851Z,0.00
2023-04-23T02:25:58.813Z,0.00
2023-04-23T02:26:58.818Z,0.00
2023-04-23T02:27:58.796Z,0.00
2023-04-23T02:28:58.797Z,0.00
2023-04-23T02:29:58.800Z,0.00
2023-04-23T02:30:58.805Z,0.00
2023-04-23T02:31:58.793Z,0.00
2023-04-23T02:32:58.817Z,0.00
2023-04-23T02:33:58.758Z,0.00
2023-04-23T02:34:58.737Z,0.00
2023-04-23T02:35:58.716Z,0.00
2023-04-23T02:36:58.745Z,0.00
2023-04-23T02:37:58.729Z,0.00
2023-04-23T02:38:58.692Z,0.00
2023-04-23T02:39:58.676Z,0.00
2023-04-23T02:40:58.673Z,0.00
2023-04-23T02:41:58.657Z,0.00
2023-04-23T02:42:58.694Z,0.00
2023-04-23T02:43:58.663Z,0.00
2023-04-23T02:44:58.633Z,0.00
2023-04-23T02:45:58.624Z,0.00
2023-04-23T02:46:58.714Z,0.00
2023-04-23T02:47:58.650Z,0.00
2023-04-23T02:48:58.611Z,0.00
2023-04-23T02:49:58.580Z,0.00
2023-04-23T02:50:58.613Z,0.00
2023-04-23T02:51:58.557Z,0.00
2023-04-23T02:52:58.559Z,0.00
2023-04-23T02:53:58.560Z,0.00
2023-04-23T02:54:58.554Z,0.00
2023-04-23T02:55:58.527Z,0.00
2023-04-23T02:56:58.512Z,0.00
2023-04-23T02:57:58.503Z,0.00
2023-04-23T02:59:30.424Z,0.00
2023-04-23T02:59:58.500Z,0.00
2023-04-23T03:00:58.516Z,0.00
2023-04-23T03:01:58.539Z,0.00
2023-04-23T03:02:59.572Z,0.00
2023-04-23T03:03:58.540Z,0.00
2023-04-23T03:04:58.435Z,0.00
2023-04-23T03:05:59.479Z,0.00
2023-04-23T03:06:58.412Z,0.00
2023-04-23T03:07:58.428Z,0.00
2023-04-23T03:08:58.393Z,0.00
2023-04-23T03:09:58.410Z,0.00
2023-04-23T03:10:58.377Z,0.00
2023-04-23T03:11:58.363Z,0.00
2023-04-23T03:12:58.345Z,0.00
2023-04-23T03:13:58.375Z,0.00
2023-04-23T03:14:58.356Z,0.00
2023-04-23T03:15:58.335Z,0.00
2023-04-23T03:16:58.395Z,0.00
2023-04-23T03:17:58.355Z,0.00
2023-04-23T03:18:58.302Z,0.00
2023-04-23T03:19:58.297Z,0.00
2023-04-23T03:20:58.302Z,0.00
2023-04-23T03:21:58.273Z,0.00
2023-04-23T03:22:58.267Z,0.00
2023-04-23T03:23:58.268Z,0.00
2023-04-23T03:24:58.231Z,0.00
2023-04-23T03:25:58.217Z,0.00
2023-04-23T03:26:58.202Z,0.00
2023-04-23T03:27:58.229Z,0.00
2023-04-23T03:28:58.229Z,0.00
2023-04-23T03:29:58.182Z,0.00
2023-04-23T03:30:58.269Z,0.00
2023-04-23T03:31:58.206Z,0.00
2023-04-23T03:32:58.166Z,0.00
2023-04-23T03:33:58.209Z,0.00
2023-04-23T03:34:58.149Z,0.00
2023-04-23T03:35:58.134Z,0.00
2023-04-23T03:36:58.128Z,0.00
2023-04-23T03:37:58.111Z,0.00
2023-04-23T03:38:59.091Z,0.00
2023-04-23T03:39:58.161Z,0.00
2023-04-23T03:40:58.104Z,0.00
2023-04-23T03:41:58.072Z,0.00
2023-04-23T03:42:58.064Z,0.00
2023-04-23T03:43:58.039Z,0.00
2023-04-23T03:44:58.047Z,0.00
2023-04-23T03:45:58.090Z,0.00
2023-04-23T03:46:58.032Z,0.00
2023-04-23T03:47:58.029Z,0.00
2023-04-23T03:48:57.994Z,0.00
2023-04-23T03:49:57.986Z,0.00
2023-04-23T03:50:58.037Z,0.00
2023-04-23T03:51:57.957Z,0.00
2023-04-23T03:52:58.014Z,0.00
2023-04-23T03:53:57.940Z,0.00
2023-04-23T03:54:57.935Z,0.00
2023-04-23T03:55:57.974Z,0.00
2023-04-23T03:56:57.910Z,0.00
2023-04-23T03:57:57.900Z,0.00
2023-04-23T03:58:57.890Z,0.00
2023-04-23T03:59:57.921Z,0.00
2023-04-23T04:00:57.918Z,0.00
2023-04-23T04:01:57.852Z,0.00
2023-04-23T04:02:57.920Z,0.00
2023-04-23T04:03:58.082Z,0.00
2023-04-23T04:04:58.156Z,0.00
2023-04-23T04:05:57.859Z,0.00
2023-04-23T04:06:57.838Z,0.00
2023-04-23T04:07:57.848Z,0.00
2023-04-23T04:08:57.788Z,0.00
2023-04-23T04:09:57.827Z,0.00
2023-04-23T04:10:57.777Z,0.00
2023-04-23T04:11:57.764Z,0.00
2023-04-23T04:12:57.776Z,0.00
2023-04-23T04:13:57.749Z,0.00
2023-04-23T04:14:57.728Z,0.00
2023-04-23T04:15:57.840Z,0.00
2023-04-23T04:16:57.709Z,0.00
2023-04-23T04:17:57.730Z,0.00
2023-04-23T04:18:57.731Z,0.00
2023-04-23T04:19:57.696Z,0.00
2023-04-23T04:20:57.707Z,0.00
2023-04-23T04:21:57.693Z,5.62
2023-04-23T04:22:57.660Z,5.62
2023-04-23T04:23:57.648Z,5.62
2023-04-23T04:24:57.679Z,5.62
2023-04-23T04:25:57.674Z,5.62
2023-04-23T04:26:57.616Z,5.62
2023-04-23T04:27:57.609Z,5.62
2023-04-23T04:28:57.594Z,5.62
2023-04-23T04:29:57.624Z,5.62
2023-04-23T04:30:57.609Z,5.62
2023-04-23T04:31:57.569Z,5.62
2023-04-23T04:32:57.587Z,5.62
2023-04-23T04:33:57.552Z,5.62
2023-04-23T04:34:57.533Z,5.62
2023-04-23T04:35:57.593Z,11.25
2023-04-23T04:36:57.507Z,11.25
2023-04-23T04:37:57.523Z,11.25
2023-04-23T04:38:57.527Z,11.25
2023-04-23T04:39:57.511Z,11.25
2023-04-23T04:40:57.491Z,16.88
2023-04-23T04:41:57.477Z,16.88
2023-04-23T04:42:57.501Z,16.88
2023-04-23T04:43:57.452Z,16.88
2023-04-23T04:44:57.494Z,16.88
2023-04-23T04:45:57.441Z,16.88
2023-04-23T04:46:57.444Z,16.88
2023-04-23T04:47:58.536Z,16.88
2023-04-23T04:48:57.417Z,16.88
2023-04-23T04:49:57.437Z,16.88
2023-04-23T04:50:57.391Z,16.88
2023-04-23T04:51:57.373Z,16.88
2023-04-23T04:52:57.353Z,16.88
2023-04-23T04:53:57.376Z,16.88
2023-04-23T04:54:57.348Z,16.88
2023-04-23T04:55:57.334Z,16.88
2023-04-23T04:56:57.350Z,16.88
2023-04-23T04:57:57.330Z,16.88
2023-04-23T04:58:57.315Z,22.50
2023-04-23T04:59:57.315Z,22.50
2023-04-23T05:00:57.322Z,22.50
2023-04-23T05:01:57.305Z,22.50
2023-04-23T05:02:57.395Z,22.50
2023-04-23T05:03:57.431Z,28.12
2023-04-23T05:04:57.266Z,28.12
2023-04-23T05:05:57.246Z,28.12
2023-04-23T05:06:57.245Z,33.75
2023-04-23T05:07:57.222Z,33.75
2023-04-23T05:08:57.224Z,33.75
2023-04-23T05:09:57.236Z,39.38
2023-04-23T05:10:57.190Z,39.38
2023-04-23T05:11:57.190Z,45.00
2023-04-23T05:12:57.169Z,45.00
2023-04-23T05:13:57.147Z,45.00
2023-04-23T05:14:57.162Z,39.38
2023-04-23T05:15:58.162Z,39.38
2023-04-23T05:16:57.167Z,39.38
2023-04-23T05:17:57.197Z,39.38
2023-04-23T05:18:57.135Z,39.38
2023-04-23T05:19:57.091Z,45.00
2023-04-23T05:20:57.154Z,45.00
2023-04-23T05:21:57.119Z,45.00
2023-04-23T05:22:57.085Z,50.62
2023-04-23T05:23:57.082Z,56.25
2023-04-23T05:24:57.077Z,61.88
2023-04-23T05:25:57.039Z,73.12
2023-04-23T05:26:57.045Z,78.75
2023-04-23T05:27:57.066Z,84.38
2023-04-23T05:28:57.006Z,101.25
2023-04-23T05:29:56.997Z,123.75
2023-04-23T05:30:56.985Z,135.00
2023-04-23T05:31:57.053Z,157.50
2023-04-23T05:32:57.011Z,163.12
2023-04-23T05:33:56.972Z,146.25
2023-04-23T05:34:56.971Z,140.62
2023-04-23T05:35:56.946Z,151.88
2023-04-23T05:36:56.952Z,163.12
2023-04-23T05:37:56.919Z,168.75
2023-04-23T05:38:56.914Z,163.12
2023-04-23T05:39:56.888Z,174.38
2023-04-23T05:40:56.902Z,196.88
2023-04-23T05:41:56.861Z,213.75
2023-04-23T05:42:56.866Z,236.25
2023-04-23T05:43:56.872Z,247.50
2023-04-23T05:44:56.853Z,264.38
2023-04-23T05:45:56.849Z,275.62
2023-04-23T05:46:56.823Z,270.00
2023-04-23T05:47:56.846Z,281.25
2023-04-23T05:48:56.806Z,292.50
2023-04-23T05:49:56.824Z,298.12
2023-04-23T05:50:56.792Z,309.38
2023-04-23T05:51:56.800Z,376.88
2023-04-23T05:52:56.777Z,382.50
2023-04-23T05:53:56.776Z,421.88
2023-04-23T05:54:56.723Z,472.50
2023-04-23T05:55:56.794Z,495.00
2023-04-23T05:56:56.713Z,630.00
2023-04-23T05:57:56.906Z,669.38
2023-04-23T05:58:56.689Z,697.50
2023-04-23T05:59:56.701Z,658.12
2023-04-23T06:00:56.688Z,652.50
2023-04-23T06:01:56.697Z,675.00
2023-04-23T06:02:56.829Z,900.00
2023-04-23T06:03:56.761Z,826.88
2023-04-23T06:04:56.803Z,877.50
2023-04-23T06:05:56.661Z,1462.50
2023-04-23T06:06:56.644Z,1383.75
2023-04-23T06:07:56.611Z,1091.25
2023-04-23T06:08:56.592Z,787.50
2023-04-23T06:09:56.596Z,669.38
2023-04-23T06:10:56.597Z,652.50
2023-04-23T06:11:56.555Z,635.62
2023-04-23T06:12:56.567Z,855.00
2023-04-23T06:13:56.546Z,894.38
2023-04-23T06:14:56.537Z,1018.12
2023-04-23T06:15:56.534Z,2368.12
2023-04-23T06:16:56.546Z,1552.50
2023-04-23T06:17:56.527Z,1822.50
2023-04-23T06:18:56.504Z,1181.25
2023-04-23T06:19:56.480Z,1175.62
2023-04-23T06:20:56.462Z,2756.25
2023-04-23T06:21:56.475Z,2711.25
2023-04-23T06:22:56.475Z,2964.38
2023-04-23T06:23:56.432Z,3048.75
2023-04-23T06:24:56.437Z,3712.50
2023-04-23T06:25:56.436Z,1186.88
2023-04-23T06:26:56.413Z,1276.88
2023-04-23T06:27:56.396Z,3555.00
2023-04-23T06:28:56.425Z,3549.38
2023-04-23T06:29:56.397Z,3498.75
2023-04-23T06:30:56.371Z,2413.12
2023-04-23T06:31:56.359Z,3622.50
2023-04-23T06:32:56.399Z,3532.50
2023-04-23T06:33:56.360Z,3566.25
2023-04-23T06:35:01.553Z,3600.00
2023-04-23T06:35:58.330Z,3678.75
2023-04-23T06:36:56.311Z,3661.88
2023-04-23T06:37:56.315Z,3538.12
2023-04-23T06:38:56.277Z,3442.50
2023-04-23T06:39:56.308Z,3515.62
2023-04-23T06:40:56.273Z,3065.62
2023-04-23T06:41:56.259Z,3555.00
2023-04-23T06:42:56.242Z,3645.00
2023-04-23T06:43:56.235Z,3667.50
2023-04-23T06:44:56.248Z,3785.62
2023-04-23T06:45:56.260Z,3645.00
2023-04-23T06:46:56.221Z,2958.75
2023-04-23T06:47:56.332Z,1310.62
2023-04-23T06:48:56.204Z,3538.12
2023-04-23T06:49:56.261Z,3751.88
2023-04-23T06:50:56.223Z,1569.38
2023-04-23T06:51:57.793Z,3639.38
2023-04-23T06:52:57.154Z,3751.88
2023-04-23T06:53:56.180Z,3718.12
2023-04-23T06:54:56.132Z,3723.75
2023-04-23T06:55:56.139Z,3723.75
2023-04-23T06:56:56.181Z,3470.62
2023-04-23T06:57:56.113Z,1563.75
2023-04-23T06:58:56.161Z,3881.25
2023-04-23T06:59:56.106Z,1850.62
2023-04-23T07:00:56.091Z,3898.12
2023-04-23T07:01:56.166Z,3841.88
2023-04-23T07:02:56.119Z,3695.62
2023-04-23T07:03:56.081Z,3796.88
2023-04-23T07:04:56.037Z,3847.50
2023-04-23T07:05:56.040Z,3858.75
2023-04-23T07:06:56.272Z,3909.38
2023-04-23T07:07:56.022Z,3757.50
2023-04-23T07:08:57.006Z,3729.38
2023-04-23T07:09:56.012Z,3442.50
2023-04-23T07:10:55.993Z,3886.88
2023-04-23T07:11:56.284Z,2953.12
2023-04-23T07:12:56.025Z,843.75
2023-04-23T07:13:55.978Z,2761.88
2023-04-23T07:14:56.012Z,2587.50
2023-04-23T07:15:55.952Z,2773.12
2023-04-23T07:16:55.989Z,3200.62
2023-04-23T07:17:55.958Z,1271.25
2023-04-23T07:18:55.914Z,3847.50
2023-04-23T07:19:55.907Z,3740.62
2023-04-23T07:20:55.934Z,3566.25
2023-04-23T07:21:55.896Z,3459.38
2023-04-23T07:22:55.893Z,945.00
2023-04-23T07:23:55.909Z,855.00
2023-04-23T07:24:56.119Z,911.25
2023-04-23T07:25:55.868Z,838.12
2023-04-23T07:26:55.849Z,826.88
2023-04-23T07:27:55.854Z,1923.75
2023-04-23T07:28:55.818Z,1400.62
2023-04-23T07:29:55.856Z,3813.75
2023-04-23T07:30:55.807Z,3408.75
2023-04-23T07:31:55.876Z,2480.62
2023-04-23T07:32:55.891Z,1383.75
2023-04-23T07:33:55.791Z,3774.38
2023-04-23T07:34:55.790Z,3740.62
2023-04-23T07:35:55.843Z,2694.38
2023-04-23T07:36:55.764Z,2486.25
2023-04-23T07:37:55.959Z,3785.62
2023-04-23T07:38:55.733Z,3583.12
2023-04-23T07:39:55.729Z,911.25
2023-04-23T07:40:55.729Z,860.62
2023-04-23T07:41:55.720Z,3200.62
2023-04-23T07:42:55.683Z,2418.75
2023-04-23T07:43:55.686Z,984.38
2023-04-23T07:44:55.685Z,956.25
2023-04-23T07:45:55.720Z,2390.62
2023-04-23T07:46:55.647Z,1501.88
2023-04-23T07:47:55.673Z,3408.75
2023-04-23T07:48:55.633Z,2941.88
2023-04-23T07:49:55.616Z,1068.75
2023-04-23T07:50:55.607Z,916.88
2023-04-23T07:51:55.616Z,810.00
2023-04-23T07:52:55.609Z,849.38
2023-04-23T07:53:55.591Z,855.00
2023-04-23T07:54:55.589Z,939.38
2023-04-23T07:55:55.588Z,2424.38
2023-04-23T07:56:55.562Z,2233.12
2023-04-23T07:57:55.540Z,3217.50
2023-04-23T07:58:55.523Z,3268.12
2023-04-23T07:59:55.557Z,922.50
2023-04-23T08:00:55.523Z,3166.88
2023-04-23T08:01:55.505Z,3138.75
2023-04-23T08:02:55.564Z,3195.00
2023-04-23T08:03:58.400Z,3133.12
2023-04-23T08:04:55.560Z,2154.38
2023-04-23T08:05:55.467Z,3031.88
2023-04-23T08:06:55.455Z,2851.88
2023-04-23T08:07:55.444Z,933.75
2023-04-23T08:08:55.443Z,815.62
2023-04-23T08:09:55.435Z,720.00
2023-04-23T08:10:55.417Z,652.50
2023-04-23T08:11:55.458Z,658.12
2023-04-23T08:12:55.398Z,720.00
2023-04-23T08:13:55.400Z,804.38
2023-04-23T08:14:55.366Z,933.75
2023-04-23T08:15:55.385Z,1344.38
2023-04-23T08:16:55.387Z,945.00
2023-04-23T08:17:55.458Z,961.88
2023-04-23T08:19:05.005Z,798.75
2023-04-23T08:19:56.326Z,731.25
2023-04-23T08:20:55.332Z,703.12
2023-04-23T08:21:55.316Z,742.50
2023-04-23T08:22:55.319Z,815.62
2023-04-23T08:23:55.280Z,1226.25
2023-04-23T08:24:55.301Z,1215.00
2023-04-23T08:25:55.338Z,905.62
2023-04-23T08:26:55.276Z,905.62
2023-04-23T08:27:55.261Z,883.12
2023-04-23T08:28:55.261Z,928.12
2023-04-23T08:29:55.245Z,1085.62
2023-04-23T08:30:55.222Z,1203.75
2023-04-23T08:31:55.239Z,1226.25
2023-04-23T08:32:55.315Z,1029.38
2023-04-23T08:33:55.224Z,1006.88
2023-04-23T08:34:55.183Z,1372.50
2023-04-23T08:35:55.162Z,995.62
2023-04-23T08:36:55.153Z,3020.62
2023-04-23T08:37:55.148Z,894.38
2023-04-23T08:38:55.174Z,1023.75
2023-04-23T08:39:56.137Z,2193.75
2023-04-23T08:40:55.121Z,883.12
2023-04-23T08:41:55.138Z,1175.62
2023-04-23T08:42:55.105Z,1687.50
2023-04-23T08:43:55.091Z,1800.00
2023-04-23T08:44:55.189Z,1794.38
2023-04-23T08:45:56.084Z,1732.50
2023-04-23T08:46:55.193Z,1715.62
2023-04-23T08:47:55.072Z,1665.00
2023-04-23T08:48:55.045Z,1642.50
2023-04-23T08:49:55.028Z,1726.88
2023-04-23T08:50:55.035Z,1698.75
2023-04-23T08:51:55.022Z,1597.50
2023-04-23T08:52:55.023Z,1535.62
2023-04-23T08:53:55.008Z,1530.00
2023-04-23T08:54:55.031Z,1586.25
2023-04-23T08:55:54.962Z,1603.12
2023-04-23T08:56:54.969Z,1575.00
2023-04-23T08:57:54.984Z,1580.62
2023-04-23T08:58:57.021Z,1552.50
2023-04-23T08:59:55.920Z,1524.38
2023-04-23T09:00:54.987Z,1530.00
2023-04-23T09:01:54.921Z,1518.75
2023-04-23T09:02:55.153Z,1546.88
2023-04-23T09:03:55.090Z,1591.88
2023-04-23T09:04:56.298Z,787.50
2023-04-23T09:05:55.890Z,1603.12
2023-04-23T09:06:54.853Z,1625.62
2023-04-23T09:07:54.858Z,1473.75
2023-04-23T09:08:54.835Z,1642.50
2023-04-23T09:09:54.840Z,1648.12
2023-04-23T09:10:54.827Z,776.25
2023-04-23T09:11:55.124Z,607.50
2023-04-23T09:12:55.799Z,573.75
2023-04-23T09:13:54.789Z,556.88
2023-04-23T09:14:54.850Z,556.88
2023-04-23T09:15:54.766Z,528.75
2023-04-23T09:16:54.840Z,500.62
2023-04-23T09:17:54.785Z,489.38
2023-04-23T09:18:54.755Z,500.62
2023-04-23T09:19:54.741Z,506.25
2023-04-23T09:20:54.725Z,506.25
2023-04-23T09:21:54.704Z,495.00
2023-04-23T09:22:54.722Z,489.38
2023-04-23T09:23:54.716Z,483.75
2023-04-23T09:24:54.726Z,461.25
2023-04-23T09:25:54.682Z,455.62
2023-04-23T09:26:54.661Z,450.00
2023-04-23T09:27:54.738Z,450.00
2023-04-23T09:28:54.630Z,455.62
2023-04-23T09:29:54.686Z,472.50
2023-04-23T09:30:54.619Z,523.12
2023-04-23T09:31:54.674Z,1372.50
2023-04-23T09:32:54.775Z,1310.62
2023-04-23T09:33:54.629Z,1243.12
2023-04-23T09:34:54.601Z,1186.88
2023-04-23T09:35:54.585Z,1113.75
2023-04-23T09:36:54.572Z,646.88
2023-04-23T09:37:54.587Z,697.50
2023-04-23T09:38:54.588Z,781.88
2023-04-23T09:39:54.546Z,658.12
2023-04-23T09:40:54.531Z,646.88
2023-04-23T09:41:54.570Z,641.25
2023-04-23T09:42:54.926Z,630.00
2023-04-23T09:43:54.504Z,618.75
2023-04-23T09:44:54.503Z,613.12
2023-04-23T09:45:54.585Z,585.00
2023-04-23T09:46:54.480Z,562.50
2023-04-23T09:47:54.605Z,545.62
2023-04-23T09:48:54.476Z,534.38
2023-04-23T09:49:54.469Z,528.75
2023-04-23T09:50:54.426Z,551.25
2023-04-23T09:51:54.423Z,568.12
2023-04-23T09:52:54.419Z,579.38
2023-04-23T09:53:54.488Z,585.00
2023-04-23T09:54:54.385Z,585.00
2023-04-23T09:55:54.388Z,607.50
2023-04-23T09:56:54.383Z,624.38
2023-04-23T09:57:54.402Z,635.62
2023-04-23T09:58:54.357Z,646.88
2023-04-23T10:00:03.712Z,652.50
2023-04-23T10:00:56.363Z,675.00
2023-04-23T10:01:54.308Z,1040.62
2023-04-23T10:02:54.413Z,1001.25
2023-04-23T10:03:54.436Z,1057.50
2023-04-23T10:05:00.850Z,1018.12
2023-04-23T10:06:01.638Z,984.38
2023-04-23T10:07:13.829Z,945.00
2023-04-23T10:07:55.265Z,916.88
2023-04-23T10:08:54.271Z,900.00
2023-04-23T10:09:54.269Z,883.12
2023-04-23T10:11:05.975Z,871.88
2023-04-23T10:11:56.216Z,871.88
2023-04-23T10:12:55.561Z,821.25
2023-04-23T10:13:55.222Z,765.00
2023-04-23T10:14:54.208Z,838.12
2023-04-23T10:15:54.233Z,613.12
2023-04-23T10:16:54.284Z,607.50
2023-04-23T10:17:54.229Z,658.12
2023-04-23T10:18:54.177Z,540.00
2023-04-23T10:19:54.160Z,489.38
2023-04-23T10:20:54.147Z,478.12
2023-04-23T10:21:57.994Z,528.75
2023-04-23T10:22:56.154Z,472.50
2023-04-23T10:23:54.172Z,466.88
2023-04-23T10:24:54.091Z,461.25
2023-04-23T10:25:54.163Z,455.62
2023-04-23T10:26:54.092Z,444.38
2023-04-23T10:27:54.788Z,450.00
2023-04-23T10:28:55.051Z,450.00
2023-04-23T10:29:54.058Z,455.62
2023-04-23T10:30:54.073Z,495.00
2023-04-23T10:31:54.024Z,725.62
2023-04-23T10:32:54.067Z,714.38
2023-04-23T10:33:58.615Z,720.00
2023-04-23T10:34:55.996Z,720.00
2023-04-23T10:35:53.977Z,720.00
2023-04-23T10:36:53.973Z,725.62
2023-04-23T10:37:53.958Z,731.25
2023-04-23T10:38:58.401Z,731.25
2023-04-23T10:39:55.942Z,742.50
2023-04-23T10:40:53.939Z,748.12
2023-04-23T10:41:53.921Z,753.75
2023-04-23T10:42:54.508Z,753.75
2023-04-23T10:43:53.930Z,753.75
2023-04-23T10:45:00.873Z,742.50
2023-04-23T10:45:55.902Z,736.88
2023-04-23T10:46:53.953Z,731.25
2023-04-23T10:47:53.889Z,725.62
2023-04-23T10:48:53.863Z,714.38
2023-04-23T10:49:53.873Z,708.75
2023-04-23T10:51:09.716Z,691.88
2023-04-23T10:52:54.865Z,675.00
2023-04-23T10:53:53.832Z,658.12
2023-04-23T10:54:53.797Z,663.75
2023-04-23T10:55:53.796Z,652.50
2023-04-23T10:56:53.783Z,646.88
2023-04-23T10:57:53.782Z,658.12
2023-04-23T10:58:53.766Z,663.75
2023-04-23T10:59:53.762Z,663.75
2023-04-23T11:00:53.742Z,663.75
2023-04-23T11:01:53.790Z,663.75
2023-04-23T11:02:53.824Z,663.75
2023-04-23T11:03:53.857Z,663.75
2023-04-23T11:04:54.833Z,663.75
2023-04-23T11:05:53.730Z,680.62
2023-04-23T11:06:53.674Z,697.50
2023-04-23T11:07:53.661Z,691.88
2023-04-23T11:08:53.762Z,658.12
2023-04-23T11:09:53.661Z,691.88
2023-04-23T11:10:53.631Z,720.00
2023-04-23T11:11:53.627Z,753.75
2023-04-23T11:12:53.609Z,601.88
2023-04-23T11:13:53.634Z,821.25
2023-04-23T11:14:53.582Z,855.00
2023-04-23T11:15:53.583Z,804.38
2023-04-23T11:16:53.602Z,669.38
2023-04-23T11:17:53.580Z,663.75
2023-04-23T11:18:53.552Z,680.62
2023-04-23T11:19:53.578Z,781.88
2023-04-23T11:20:53.527Z,742.50
2023-04-23T11:21:53.516Z,714.38
2023-04-23T11:22:53.551Z,720.00
2023-04-23T11:23:53.494Z,860.62
2023-04-23T11:24:53.512Z,703.12
2023-04-23T11:25:53.503Z,703.12
2023-04-23T11:26:53.498Z,658.12
2023-04-23T11:27:53.457Z,579.38
2023-04-23T11:28:53.426Z,573.75
2023-04-23T11:29:53.458Z,562.50
2023-04-23T11:30:53.445Z,551.25
2023-04-23T11:32:02.665Z,528.75
2023-04-23T11:32:55.492Z,517.50
2023-04-23T11:33:53.399Z,500.62
2023-04-23T11:34:53.462Z,495.00
2023-04-23T11:35:53.431Z,528.75
2023-04-23T11:36:53.370Z,506.25
2023-04-23T11:37:53.366Z,517.50
2023-04-23T11:38:53.357Z,534.38
2023-04-23T11:39:53.387Z,568.12
2023-04-23T11:40:53.397Z,596.25
2023-04-23T11:41:54.106Z,635.62
2023-04-23T11:42:53.311Z,658.12
2023-04-23T11:43:53.298Z,669.38
2023-04-23T11:44:53.292Z,652.50
2023-04-23T11:45:53.371Z,641.25
2023-04-23T11:46:53.313Z,635.62
2023-04-23T11:47:53.292Z,641.25
2023-04-23T11:48:53.272Z,630.00
2023-04-23T11:49:53.253Z,635.62
2023-04-23T11:50:53.232Z,652.50
2023-04-23T11:51:53.255Z,646.88
2023-04-23T11:52:53.210Z,748.12
2023-04-23T11:53:53.254Z,641.25
2023-04-23T11:54:53.210Z,646.88
2023-04-23T11:55:53.192Z,663.75
2023-04-23T11:56:53.209Z,658.12
2023-04-23T11:57:53.169Z,658.12
2023-04-23T11:58:53.157Z,658.12
2023-04-23T11:59:53.147Z,663.75
2023-04-23T12:00:53.169Z,680.62
2023-04-23T12:01:53.120Z,714.38
2023-04-23T12:02:53.429Z,658.12
2023-04-23T12:03:53.163Z,630.00
2023-04-23T12:04:53.109Z,607.50
2023-04-23T12:05:53.136Z,601.88
2023-04-23T12:06:53.081Z,590.62
2023-04-23T12:07:53.087Z,579.38
2023-04-23T12:08:53.060Z,562.50
2023-04-23T12:09:53.049Z,540.00
2023-04-23T12:10:53.045Z,517.50
2023-04-23T12:11:53.065Z,500.62
2023-04-23T12:12:53.024Z,478.12
2023-04-23T12:13:53.000Z,461.25
2023-04-23T12:14:52.988Z,444.38
2023-04-23T12:15:53.058Z,433.12
2023-04-23T12:16:52.994Z,427.50
2023-04-23T12:17:53.098Z,438.75
2023-04-23T12:18:52.946Z,495.00
2023-04-23T12:19:52.938Z,478.12
2023-04-23T12:20:52.951Z,461.25
2023-04-23T12:21:52.937Z,472.50
2023-04-23T12:22:52.910Z,489.38
2023-04-23T12:23:52.893Z,506.25
2023-04-23T12:24:52.907Z,517.50
2023-04-23T12:25:52.900Z,500.62
2023-04-23T12:26:52.925Z,489.38
2023-04-23T12:27:52.880Z,489.38
2023-04-23T12:28:52.885Z,478.12
2023-04-23T12:29:52.886Z,489.38
2023-04-23T12:30:52.949Z,500.62
2023-04-23T12:31:52.834Z,511.88
2023-04-23T12:32:52.849Z,528.75
2023-04-23T12:33:52.869Z,545.62
2023-04-23T12:34:52.925Z,562.50
2023-04-23T12:35:52.806Z,579.38
2023-04-23T12:36:52.780Z,590.62
2023-04-23T12:37:52.773Z,601.88
2023-04-23T12:38:52.826Z,613.12
2023-04-23T12:39:52.775Z,624.38
2023-04-23T12:40:52.729Z,641.25
2023-04-23T12:41:52.745Z,646.88
2023-04-23T12:42:52.754Z,686.25